sensor_id;sensor_type;location;lat;lon;timestamp;pressure;altitude;pressure_sealevel;temperature;humidity
5812;BME280;2932;52.400;9.558;2023-07-30T00:01:01;100185.25;;;20.75;77.50
5812;BME280;2932;52.400;9.558;2023-07-30T00:03:26;100177.97;;;20.78;77.44
5812;BME280;2932;52.400;9.558;2023-07-30T00:05:53;100184.72;;;20.80;77.54
5812;BME280;2932;52.400;9.558;2023-07-30T00:08:19;100189.88;;;20.85;77.71
5812;BME280;2932;52.400;9.558;2023-07-30T00:10:44;100193.69;;;20.98;77.54
5812;BME280;2932;52.400;9.558;2023-07-30T00:13:09;100195.50;;;20.85;77.50
5812;BME280;2932;52.400;9.558;2023-07-30T00:15:35;100189.53;;;20.56;79.13
5812;BME280;2932;52.400;9.558;2023-07-30T00:18:00;100185.91;;;20.83;78.49
5812;BME280;2932;52.400;9.558;2023-07-30T00:20:25;100193.00;;;20.91;77.83
5812;BME280;2932;52.400;9.558;2023-07-30T00:22:51;100202.13;;;20.98;77.42
5812;BME280;2932;52.400;9.558;2023-07-30T00:25:16;100200.41;;;21.05;77.23
5812;BME280;2932;52.400;9.558;2023-07-30T00:27:41;100191.13;;;21.08;76.95
5812;BME280;2932;52.400;9.558;2023-07-30T00:30:07;100198.13;;;20.96;77.27
5812;BME280;2932;52.400;9.558;2023-07-30T00:32:32;100191.72;;;20.95;77.70
5812;BME280;2932;52.400;9.558;2023-07-30T00:34:58;100190.00;;;21.02;77.43
5812;BME280;2932;52.400;9.558;2023-07-30T00:37:23;100186.69;;;20.83;77.83
5812;BME280;2932;52.400;9.558;2023-07-30T00:39:48;100192.50;;;20.73;78.24
5812;BME280;2932;52.400;9.558;2023-07-30T00:42:13;100191.50;;;20.59;78.90
5812;BME280;2932;52.400;9.558;2023-07-30T00:44:39;100197.88;;;20.63;79.06
5812;BME280;2932;52.400;9.558;2023-07-30T00:47:04;100203.75;;;20.46;79.39
5812;BME280;2932;52.400;9.558;2023-07-30T00:49:30;100203.56;;;20.29;80.06
5812;BME280;2932;52.400;9.558;2023-07-30T00:51:55;100213.63;;;19.96;81.46
5812;BME280;2932;52.400;9.558;2023-07-30T00:54:22;100213.56;;;20.00;81.54
5812;BME280;2932;52.400;9.558;2023-07-30T00:56:51;100208.66;;;20.08;81.69
5812;BME280;2932;52.400;9.558;2023-07-30T00:59:17;100214.13;;;19.88;82.05
5812;BME280;2932;52.400;9.558;2023-07-30T01:01:43;100217.59;;;19.99;82.23
5812;BME280;2932;52.400;9.558;2023-07-30T01:04:09;100214.94;;;19.88;82.16
5812;BME280;2932;52.400;9.558;2023-07-30T01:06:35;100219.31;;;19.89;82.70
5812;BME280;2932;52.400;9.558;2023-07-30T01:09:01;100217.03;;;20.11;82.05
5812;BME280;2932;52.400;9.558;2023-07-30T01:11:26;100215.84;;;20.09;82.05
5812;BME280;2932;52.400;9.558;2023-07-30T01:13:53;100225.59;;;20.01;81.93
5812;BME280;2932;52.400;9.558;2023-07-30T01:16:19;100224.66;;;20.11;81.53
5812;BME280;2932;52.400;9.558;2023-07-30T01:18:44;100225.59;;;20.01;82.28
5812;BME280;2932;52.400;9.558;2023-07-30T01:21:11;100230.25;;;20.14;81.97
5812;BME280;2932;52.400;9.558;2023-07-30T01:23:37;100238.84;;;20.00;82.46
5812;BME280;2932;52.400;9.558;2023-07-30T01:26:11;100244.03;;;20.02;82.57
5812;BME280;2932;52.400;9.558;2023-07-30T01:28:43;100238.63;;;20.18;82.03
5812;BME280;2932;52.400;9.558;2023-07-30T01:31:14;100236.31;;;20.09;82.15
5812;BME280;2932;52.400;9.558;2023-07-30T01:33:41;100238.00;;;20.03;82.56
5812;BME280;2932;52.400;9.558;2023-07-30T01:36:08;100233.31;;;19.93;82.79
5812;BME280;2932;52.400;9.558;2023-07-30T01:38:38;100244.97;;;19.91;82.78
5812;BME280;2932;52.400;9.558;2023-07-30T01:41:04;100235.84;;;19.84;83.16
5812;BME280;2932;52.400;9.558;2023-07-30T01:43:29;100246.22;;;19.87;83.09
5812;BME280;2932;52.400;9.558;2023-07-30T01:45:54;100249.97;;;19.73;83.48
5812;BME280;2932;52.400;9.558;2023-07-30T01:48:20;100241.28;;;19.60;84.34
5812;BME280;2932;52.400;9.558;2023-07-30T01:50:45;100254.28;;;19.44;84.46
5812;BME280;2932;52.400;9.558;2023-07-30T01:53:13;100246.59;;;19.55;84.67
5812;BME280;2932;52.400;9.558;2023-07-30T01:55:39;100260.81;;;19.30;85.45
5812;BME280;2932;52.400;9.558;2023-07-30T01:58:08;100259.63;;;19.27;85.83
5812;BME280;2932;52.400;9.558;2023-07-30T02:00:34;100262.88;;;19.22;85.69
5812;BME280;2932;52.400;9.558;2023-07-30T02:02:59;100253.81;;;19.49;84.81
5812;BME280;2932;52.400;9.558;2023-07-30T02:05:25;100262.25;;;19.52;84.50
5812;BME280;2932;52.400;9.558;2023-07-30T02:07:50;100261.81;;;19.50;84.00
5812;BME280;2932;52.400;9.558;2023-07-30T02:10:15;100263.47;;;19.44;84.06
5812;BME280;2932;52.400;9.558;2023-07-30T02:12:41;100261.22;;;19.28;84.80
5812;BME280;2932;52.400;9.558;2023-07-30T02:15:06;100254.41;;;19.26;84.39
5812;BME280;2932;52.400;9.558;2023-07-30T02:17:32;100254.78;;;19.31;84.31
5812;BME280;2932;52.400;9.558;2023-07-30T02:19:57;100258.03;;;19.26;84.05
5812;BME280;2932;52.400;9.558;2023-07-30T02:22:22;100265.59;;;19.33;83.72
5812;BME280;2932;52.400;9.558;2023-07-30T02:24:48;100255.25;;;19.23;83.15
5812;BME280;2932;52.400;9.558;2023-07-30T02:27:13;100262.13;;;19.18;82.77
5812;BME280;2932;52.400;9.558;2023-07-30T02:29:38;100264.59;;;19.09;83.10
5812;BME280;2932;52.400;9.558;2023-07-30T02:32:04;100258.94;;;19.16;82.75
5812;BME280;2932;52.400;9.558;2023-07-30T02:34:30;100259.38;;;19.11;81.96
5812;BME280;2932;52.400;9.558;2023-07-30T02:36:55;100257.41;;;19.05;81.99
5812;BME280;2932;52.400;9.558;2023-07-30T02:39:20;100264.16;;;19.14;81.56
5812;BME280;2932;52.400;9.558;2023-07-30T02:41:46;100263.81;;;19.05;81.92
5812;BME280;2932;52.400;9.558;2023-07-30T02:44:11;100260.59;;;19.10;80.92
5812;BME280;2932;52.400;9.558;2023-07-30T02:46:36;100260.28;;;18.94;80.45
5812;BME280;2932;52.400;9.558;2023-07-30T02:49:02;100260.34;;;18.87;80.49
5812;BME280;2932;52.400;9.558;2023-07-30T02:51:27;100265.84;;;19.05;80.01
5812;BME280;2932;52.400;9.558;2023-07-30T02:53:57;100268.19;;;19.13;79.58
5812;BME280;2932;52.400;9.558;2023-07-30T02:56:23;100264.59;;;19.09;78.81
5812;BME280;2932;52.400;9.558;2023-07-30T02:58:48;100266.28;;;18.96;79.15
5812;BME280;2932;52.400;9.558;2023-07-30T03:01:14;100260.25;;;19.01;78.68
5812;BME280;2932;52.400;9.558;2023-07-30T03:03:39;100267.22;;;18.79;78.79
5812;BME280;2932;52.400;9.558;2023-07-30T03:06:04;100270.84;;;18.76;79.24
5812;BME280;2932;52.400;9.558;2023-07-30T03:08:30;100272.38;;;18.84;78.16
5812;BME280;2932;52.400;9.558;2023-07-30T03:10:58;100270.72;;;18.93;77.88
5812;BME280;2932;52.400;9.558;2023-07-30T03:13:23;100270.72;;;18.93;77.62
5812;BME280;2932;52.400;9.558;2023-07-30T03:15:49;100278.75;;;18.91;78.00
5812;BME280;2932;52.400;9.558;2023-07-30T03:18:14;100285.13;;;18.95;77.74
5812;BME280;2932;52.400;9.558;2023-07-30T03:20:40;100281.16;;;18.86;78.11
5812;BME280;2932;52.400;9.558;2023-07-30T03:23:05;100277.91;;;18.94;77.56
5812;BME280;2932;52.400;9.558;2023-07-30T03:25:30;100277.59;;;18.82;77.41
5812;BME280;2932;52.400;9.558;2023-07-30T03:27:56;100282.00;;;18.83;77.57
5812;BME280;2932;52.400;9.558;2023-07-30T03:30:21;100288.53;;;18.65;77.69
5812;BME280;2932;52.400;9.558;2023-07-30T03:32:46;100284.09;;;18.68;77.36
5812;BME280;2932;52.400;9.558;2023-07-30T03:35:12;100283.34;;;18.57;77.64
5812;BME280;2932;52.400;9.558;2023-07-30T03:37:37;100282.53;;;18.60;77.54
5812;BME280;2932;52.400;9.558;2023-07-30T03:40:03;100274.56;;;18.48;78.16
5812;BME280;2932;52.400;9.558;2023-07-30T03:42:28;100282.16;;;18.51;77.88
5812;BME280;2932;52.400;9.558;2023-07-30T03:44:53;100286.16;;;18.60;77.33
5812;BME280;2932;52.400;9.558;2023-07-30T03:47:19;100288.97;;;18.50;77.93
5812;BME280;2932;52.400;9.558;2023-07-30T03:49:44;100289.34;;;18.52;77.57
5812;BME280;2932;52.400;9.558;2023-07-30T03:52:09;100290.13;;;18.56;77.79
5812;BME280;2932;52.400;9.558;2023-07-30T03:54:34;100292.56;;;18.61;77.59
5812;BME280;2932;52.400;9.558;2023-07-30T03:57:00;100288.09;;;18.71;77.13
5812;BME280;2932;52.400;9.558;2023-07-30T03:59:25;100292.00;;;18.80;76.44
5812;BME280;2932;52.400;9.558;2023-07-30T04:01:51;100283.69;;;18.70;76.49
5812;BME280;2932;52.400;9.558;2023-07-30T04:04:16;100290.88;;;18.78;77.02
5812;BME280;2932;52.400;9.558;2023-07-30T04:06:41;100296.41;;;18.85;76.61
5812;BME280;2932;52.400;9.558;2023-07-30T04:09:07;100287.84;;;19.06;75.59
5812;BME280;2932;52.400;9.558;2023-07-30T04:11:33;100291.44;;;19.10;75.75
5812;BME280;2932;52.400;9.558;2023-07-30T04:13:58;100298.25;;;19.09;75.85
5812;BME280;2932;52.400;9.558;2023-07-30T04:16:23;100304.28;;;19.08;76.13
5812;BME280;2932;52.400;9.558;2023-07-30T04:18:49;100308.22;;;19.14;76.30
5812;BME280;2932;52.400;9.558;2023-07-30T04:21:14;100304.69;;;19.03;76.26
5812;BME280;2932;52.400;9.558;2023-07-30T04:23:40;100308.22;;;19.14;76.54
5812;BME280;2932;52.400;9.558;2023-07-30T04:26:05;100311.03;;;19.14;76.22
5812;BME280;2932;52.400;9.558;2023-07-30T04:28:31;100307.34;;;19.24;76.05
5812;BME280;2932;52.400;9.558;2023-07-30T04:30:56;100307.66;;;19.33;76.73
5812;BME280;2932;52.400;9.558;2023-07-30T04:33:21;100309.53;;;18.98;78.28
5812;BME280;2932;52.400;9.558;2023-07-30T04:35:47;100310.00;;;18.86;78.80
5812;BME280;2932;52.400;9.558;2023-07-30T04:38:12;100309.16;;;18.93;79.71
5812;BME280;2932;52.400;9.558;2023-07-30T04:40:38;100305.53;;;18.96;79.68
5812;BME280;2932;52.400;9.558;2023-07-30T04:43:03;100300.34;;;18.94;80.15
5812;BME280;2932;52.400;9.558;2023-07-30T04:45:29;100301.00;;;19.16;79.87
5812;BME280;2932;52.400;9.558;2023-07-30T04:47:54;100299.13;;;18.99;79.63
5812;BME280;2932;52.400;9.558;2023-07-30T04:50:19;100301.47;;;19.08;79.73
5812;BME280;2932;52.400;9.558;2023-07-30T04:52:45;100302.69;;;19.03;79.65
5812;BME280;2932;52.400;9.558;2023-07-30T04:55:10;100310.25;;;19.13;79.26
5812;BME280;2932;52.400;9.558;2023-07-30T04:57:36;100302.47;;;19.31;78.63
5812;BME280;2932;52.400;9.558;2023-07-30T05:00:01;100304.00;;;19.40;78.44
5812;BME280;2932;52.400;9.558;2023-07-30T05:02:26;100302.09;;;19.26;79.11
5812;BME280;2932;52.400;9.558;2023-07-30T05:04:52;100309.06;;;19.11;79.12
5812;BME280;2932;52.400;9.558;2023-07-30T05:07:17;100292.47;;;19.27;78.96
5812;BME280;2932;52.400;9.558;2023-07-30T05:09:43;100295.47;;;19.57;78.65
5812;BME280;2932;52.400;9.558;2023-07-30T05:12:08;100292.69;;;19.54;78.10
5812;BME280;2932;52.400;9.558;2023-07-30T05:14:33;100295.50;;;19.54;78.10
5812;BME280;2932;52.400;9.558;2023-07-30T05:16:58;100301.22;;;19.36;78.00
5812;BME280;2932;52.400;9.558;2023-07-30T05:19:24;100305.97;;;19.43;77.96
5812;BME280;2932;52.400;9.558;2023-07-30T05:21:49;100297.19;;;19.41;78.58
5812;BME280;2932;52.400;9.558;2023-07-30T05:24:14;100300.44;;;19.80;77.53
5812;BME280;2932;52.400;9.558;2023-07-30T05:26:40;100301.03;;;19.61;77.00
5812;BME280;2932;52.400;9.558;2023-07-30T05:29:05;100307.06;;;19.59;77.09
5812;BME280;2932;52.400;9.558;2023-07-30T05:31:30;100298.88;;;19.76;76.63
5812;BME280;2932;52.400;9.558;2023-07-30T05:33:56;100310.06;;;19.79;76.51
5812;BME280;2932;52.400;9.558;2023-07-30T05:36:21;100308.75;;;19.91;75.56
5812;BME280;2932;52.400;9.558;2023-07-30T05:38:46;100308.31;;;19.96;75.69
5812;BME280;2932;52.400;9.558;2023-07-30T05:41:12;100308.56;;;19.71;76.28
5812;BME280;2932;52.400;9.558;2023-07-30T05:43:37;100303.16;;;19.91;76.87
5812;BME280;2932;52.400;9.558;2023-07-30T05:46:02;100305.69;;;20.12;75.73
5812;BME280;2932;52.400;9.558;2023-07-30T05:48:28;100299.63;;;20.51;75.31
5812;BME280;2932;52.400;9.558;2023-07-30T05:50:53;100295.59;;;20.18;75.07
5812;BME280;2932;52.400;9.558;2023-07-30T05:53:18;100300.97;;;20.06;76.12
5812;BME280;2932;52.400;9.558;2023-07-30T05:58:11;100303.78;;;20.40;74.27
5812;BME280;2932;52.400;9.558;2023-07-30T06:00:39;100315.41;;;19.67;75.72
5812;BME280;2932;52.400;9.558;2023-07-30T06:03:05;100301.94;;;19.92;74.87
5812;BME280;2932;52.400;9.558;2023-07-30T06:05:31;100312.41;;;19.88;74.64
5812;BME280;2932;52.400;9.558;2023-07-30T06:07:56;100300.31;;;20.28;74.67
5812;BME280;2932;52.400;9.558;2023-07-30T06:10:22;100308.44;;;20.19;73.76
5812;BME280;2932;52.400;9.558;2023-07-30T06:12:47;100304.25;;;20.35;73.27
5812;BME280;2932;52.400;9.558;2023-07-30T06:15:12;100302.09;;;20.46;73.28
5812;BME280;2932;52.400;9.558;2023-07-30T06:17:37;100310.69;;;20.31;73.22
5812;BME280;2932;52.400;9.558;2023-07-30T06:20:03;100320.84;;;19.84;73.35
5812;BME280;2932;52.400;9.558;2023-07-30T06:22:28;100306.09;;;20.14;73.93
5812;BME280;2932;52.400;9.558;2023-07-30T06:24:54;100306.31;;;20.61;72.94
5812;BME280;2932;52.400;9.558;2023-07-30T06:27:19;100310.81;;;20.55;71.87
5812;BME280;2932;52.400;9.558;2023-07-30T06:29:44;100294.53;;;20.73;70.94
5812;BME280;2932;52.400;9.558;2023-07-30T06:32:10;100294.09;;;20.75;71.20
5812;BME280;2932;52.400;9.558;2023-07-30T06:34:35;100299.53;;;20.58;70.81
5812;BME280;2932;52.400;9.558;2023-07-30T06:37:00;100301.47;;;20.65;71.14
5812;BME280;2932;52.400;9.558;2023-07-30T06:39:25;100303.47;;;20.91;70.40
5812;BME280;2932;52.400;9.558;2023-07-30T06:41:51;100309.31;;;20.77;70.33
5812;BME280;2932;52.400;9.558;2023-07-30T06:44:16;100316.91;;;20.50;70.05
5812;BME280;2932;52.400;9.558;2023-07-30T06:46:41;100313.63;;;20.55;70.08
5812;BME280;2932;52.400;9.558;2023-07-30T06:49:07;100316.41;;;20.24;70.14
5812;BME280;2932;52.400;9.558;2023-07-30T06:51:32;100318.59;;;20.74;68.67
5812;BME280;2932;52.400;9.558;2023-07-30T06:53:57;100320.38;;;20.61;68.33
5812;BME280;2932;52.400;9.558;2023-07-30T06:56:23;100334.88;;;20.22;68.31
5812;BME280;2932;52.400;9.558;2023-07-30T06:58:48;100324.41;;;20.60;68.15
5812;BME280;2932;52.400;9.558;2023-07-30T07:01:13;100325.88;;;20.98;67.15
5812;BME280;2932;52.400;9.558;2023-07-30T07:03:39;100340.81;;;21.22;66.79
5812;BME280;2932;52.400;9.558;2023-07-30T07:06:04;100336.44;;;21.18;66.69
5812;BME280;2932;52.400;9.558;2023-07-30T07:08:30;100331.28;;;20.86;66.77
5812;BME280;2932;52.400;9.558;2023-07-30T07:10:55;100335.22;;;20.92;66.59
5812;BME280;2932;52.400;9.558;2023-07-30T07:13:20;100343.41;;;21.37;66.94
5812;BME280;2932;52.400;9.558;2023-07-30T07:15:46;100345.75;;;21.15;66.54
5812;BME280;2932;52.400;9.558;2023-07-30T07:18:11;100339.38;;;21.11;66.48
5812;BME280;2932;52.400;9.558;2023-07-30T07:20:37;100341.53;;;21.26;65.87
5812;BME280;2932;52.400;9.558;2023-07-30T07:23:03;100342.75;;;20.98;66.63
5812;BME280;2932;52.400;9.558;2023-07-30T07:25:28;100346.00;;;21.24;65.51
5812;BME280;2932;52.400;9.558;2023-07-30T07:27:54;100349.91;;;21.57;65.34
5812;BME280;2932;52.400;9.558;2023-07-30T07:30:19;100357.31;;;21.71;64.74
5812;BME280;2932;52.400;9.558;2023-07-30T07:32:44;100352.16;;;21.66;64.93
5812;BME280;2932;52.400;9.558;2023-07-30T07:35:10;100360.06;;;21.51;65.09
5812;BME280;2932;52.400;9.558;2023-07-30T07:37:35;100360.50;;;21.49;65.13
5812;BME280;2932;52.400;9.558;2023-07-30T07:40:01;100356.31;;;21.07;65.74
5812;BME280;2932;52.400;9.558;2023-07-30T07:42:26;100355.03;;;21.39;66.28
5812;BME280;2932;52.400;9.558;2023-07-30T07:44:51;100355.59;;;21.53;65.63
5812;BME280;2932;52.400;9.558;2023-07-30T07:47:16;100351.84;;;21.60;65.91
5812;BME280;2932;52.400;9.558;2023-07-30T07:49:42;100355.13;;;21.58;65.84
5812;BME280;2932;52.400;9.558;2023-07-30T07:52:08;100346.00;;;21.24;65.69
5812;BME280;2932;52.400;9.558;2023-07-30T07:54:34;100346.31;;;21.03;66.10
5812;BME280;2932;52.400;9.558;2023-07-30T07:56:59;100346.25;;;20.79;67.03
5812;BME280;2932;52.400;9.558;2023-07-30T07:59:25;100343.88;;;21.05;66.72
5812;BME280;2932;52.400;9.558;2023-07-30T08:01:50;100347.75;;;21.14;66.30
5812;BME280;2932;52.400;9.558;2023-07-30T08:04:15;100346.41;;;20.95;66.80
5812;BME280;2932;52.400;9.558;2023-07-30T08:06:41;100348.66;;;21.08;67.06
5812;BME280;2932;52.400;9.558;2023-07-30T08:09:06;100351.25;;;21.49;66.20
5812;BME280;2932;52.400;9.558;2023-07-30T08:11:31;100351.63;;;21.51;65.87
5812;BME280;2932;52.400;9.558;2023-07-30T08:13:57;100344.47;;;21.46;65.89
5812;BME280;2932;52.400;9.558;2023-07-30T08:16:22;100354.25;;;21.61;65.40
5812;BME280;2932;52.400;9.558;2023-07-30T08:18:48;100356.16;;;21.45;65.75
5812;BME280;2932;52.400;9.558;2023-07-30T08:21:13;100350.94;;;21.67;65.29
5812;BME280;2932;52.400;9.558;2023-07-30T08:23:40;100339.47;;;21.30;65.83
5812;BME280;2932;52.400;9.558;2023-07-30T08:26:05;100339.91;;;21.76;65.50
5812;BME280;2932;52.400;9.558;2023-07-30T08:28:30;100344.56;;;21.86;64.57
5812;BME280;2932;52.400;9.558;2023-07-30T08:31:02;100344.34;;;21.77;64.84
5812;BME280;2932;52.400;9.558;2023-07-30T08:33:28;100338.66;;;21.57;65.16
5812;BME280;2932;52.400;9.558;2023-07-30T08:35:58;100340.59;;;21.37;65.79
5812;BME280;2932;52.400;9.558;2023-07-30T08:38:24;100340.59;;;21.60;65.63
5812;BME280;2932;52.400;9.558;2023-07-30T08:40:49;100337.50;;;21.54;66.27
5812;BME280;2932;52.400;9.558;2023-07-30T08:43:15;100336.00;;;21.70;66.23
5812;BME280;2932;52.400;9.558;2023-07-30T08:45:40;100335.56;;;21.94;66.16
5812;BME280;2932;52.400;9.558;2023-07-30T08:48:06;100323.38;;;22.01;65.63
5812;BME280;2932;52.400;9.558;2023-07-30T08:50:31;100335.91;;;22.40;64.68
5812;BME280;2932;52.400;9.558;2023-07-30T08:52:59;100331.56;;;22.15;65.59
5812;BME280;2932;52.400;9.558;2023-07-30T08:55:26;100342.19;;;22.08;65.19
5812;BME280;2932;52.400;9.558;2023-07-30T08:57:54;100343.56;;;21.53;66.02
5812;BME280;2932;52.400;9.558;2023-07-30T09:00:24;100357.53;;;21.33;66.58
5812;BME280;2932;52.400;9.558;2023-07-30T09:02:52;100345.75;;;21.42;66.90
5812;BME280;2932;52.400;9.558;2023-07-30T09:05:20;100356.25;;;21.61;65.97
5812;BME280;2932;52.400;9.558;2023-07-30T09:07:45;100357.19;;;22.01;65.35
5812;BME280;2932;52.400;9.558;2023-07-30T09:10:11;100368.59;;;21.94;65.44
5812;BME280;2932;52.400;9.558;2023-07-30T09:12:37;100343.47;;;22.03;64.55
5812;BME280;2932;52.400;9.558;2023-07-30T09:15:04;100346.47;;;22.36;64.80
5812;BME280;2932;52.400;9.558;2023-07-30T09:17:33;100351.69;;;22.37;64.17
5812;BME280;2932;52.400;9.558;2023-07-30T09:19:59;100358.16;;;22.14;64.39
5812;BME280;2932;52.400;9.558;2023-07-30T09:22:27;100357.03;;;22.32;64.51
5812;BME280;2932;52.400;9.558;2023-07-30T09:24:56;100362.59;;;22.35;64.49
5812;BME280;2932;52.400;9.558;2023-07-30T09:27:24;100356.50;;;22.17;64.62
5812;BME280;2932;52.400;9.558;2023-07-30T09:29:54;100363.22;;;22.43;64.08
5812;BME280;2932;52.400;9.558;2023-07-30T09:32:27;100367.50;;;22.90;63.44
5812;BME280;2932;52.400;9.558;2023-07-30T09:34:53;100366.84;;;22.43;63.75
5812;BME280;2932;52.400;9.558;2023-07-30T09:37:18;100382.25;;;21.95;65.09
5812;BME280;2932;52.400;9.558;2023-07-30T09:39:43;100366.63;;;22.14;65.12
5812;BME280;2932;52.400;9.558;2023-07-30T09:42:09;100382.53;;;21.78;65.41
5812;BME280;2932;52.400;9.558;2023-07-30T09:44:36;100383.09;;;21.69;66.16
5812;BME280;2932;52.400;9.558;2023-07-30T09:47:14;100394.66;;;21.75;66.01
5812;BME280;2932;52.400;9.558;2023-07-30T09:49:39;100384.50;;;21.81;66.27
5812;BME280;2932;52.400;9.558;2023-07-30T09:52:05;100396.38;;;21.69;66.25
5812;BME280;2932;52.400;9.558;2023-07-30T09:54:31;100400.38;;;21.94;65.64
5812;BME280;2932;52.400;9.558;2023-07-30T09:56:57;100404.88;;;21.65;66.47
5812;BME280;2932;52.400;9.558;2023-07-30T09:59:23;100402.72;;;21.49;67.10
5812;BME280;2932;52.400;9.558;2023-07-30T10:01:49;100404.53;;;21.36;67.69
5812;BME280;2932;52.400;9.558;2023-07-30T10:04:15;100419.03;;;21.35;67.57
5812;BME280;2932;52.400;9.558;2023-07-30T10:06:53;100422.41;;;21.22;67.39
5812;BME280;2932;52.400;9.558;2023-07-30T10:09:21;100432.06;;;21.21;67.31
5812;BME280;2932;52.400;9.558;2023-07-30T10:11:49;100433.16;;;20.67;68.70
5812;BME280;2932;52.400;9.558;2023-07-30T10:14:17;100428.16;;;20.81;69.42
5812;BME280;2932;52.400;9.558;2023-07-30T10:16:56;100427.09;;;20.72;69.06
5812;BME280;2932;52.400;9.558;2023-07-30T10:19:30;100435.31;;;20.86;68.88
5812;BME280;2932;52.400;9.558;2023-07-30T10:24:38;100432.63;;;21.09;69.11
5812;BME280;2932;52.400;9.558;2023-07-30T10:27:07;100440.53;;;20.87;69.30
5812;BME280;2932;52.400;9.558;2023-07-30T10:29:35;100440.44;;;20.64;69.94
5812;BME280;2932;52.400;9.558;2023-07-30T10:32:01;100449.38;;;20.86;69.56
5812;BME280;2932;52.400;9.558;2023-07-30T10:34:46;100454.53;;;20.60;70.00
5812;BME280;2932;52.400;9.558;2023-07-30T10:37:18;100448.31;;;20.76;69.67
5812;BME280;2932;52.400;9.558;2023-07-30T10:39:44;100460.75;;;20.41;70.33
5812;BME280;2932;52.400;9.558;2023-07-30T10:42:12;100467.53;;;20.44;71.05
5812;BME280;2932;52.400;9.558;2023-07-30T10:44:43;100453.78;;;20.53;71.46
5812;BME280;2932;52.400;9.558;2023-07-30T10:47:10;100468.88;;;20.70;70.20
5812;BME280;2932;52.400;9.558;2023-07-30T10:49:37;100441.28;;;20.91;69.67
5812;BME280;2932;52.400;9.558;2023-07-30T10:52:06;100443.84;;;21.13;69.18
5812;BME280;2932;52.400;9.558;2023-07-30T10:54:35;100445.69;;;21.53;68.83
5812;BME280;2932;52.400;9.558;2023-07-30T10:57:00;100444.28;;;21.65;68.21
5812;BME280;2932;52.400;9.558;2023-07-30T10:59:26;100438.91;;;21.51;67.94
5812;BME280;2932;52.400;9.558;2023-07-30T11:01:52;100437.88;;;21.38;68.82
5812;BME280;2932;52.400;9.558;2023-07-30T11:04:19;100432.16;;;21.45;68.33
5812;BME280;2932;52.400;9.558;2023-07-30T11:06:50;100433.50;;;20.72;70.03
5812;BME280;2932;52.400;9.558;2023-07-30T11:11:46;100434.75;;;21.59;67.88
5812;BME280;2932;52.400;9.558;2023-07-30T11:14:16;100436.88;;;21.51;67.79
5812;BME280;2932;52.400;9.558;2023-07-30T11:16:53;100421.50;;;22.29;66.79
5812;BME280;2932;52.400;9.558;2023-07-30T11:19:19;100427.75;;;22.17;65.86
5812;BME280;2932;52.400;9.558;2023-07-30T11:21:49;100430.06;;;22.22;66.45
5812;BME280;2932;52.400;9.558;2023-07-30T11:24:15;100435.81;;;21.92;67.15
5812;BME280;2932;52.400;9.558;2023-07-30T11:26:41;100444.91;;;21.53;68.61
5812;BME280;2932;52.400;9.558;2023-07-30T11:29:16;100435.41;;;21.67;69.12
5812;BME280;2932;52.400;9.558;2023-07-30T11:31:43;100443.75;;;21.74;68.59
5812;BME280;2932;52.400;9.558;2023-07-30T11:34:09;100432.25;;;21.88;68.24
5812;BME280;2932;52.400;9.558;2023-07-30T11:36:34;100427.38;;;21.92;67.27
5812;BME280;2932;52.400;9.558;2023-07-30T11:39:00;100421.00;;;21.88;67.34
5812;BME280;2932;52.400;9.558;2023-07-30T11:41:26;100426.75;;;22.27;66.17
5812;BME280;2932;52.400;9.558;2023-07-30T11:43:52;100432.94;;;21.45;67.66
5812;BME280;2932;52.400;9.558;2023-07-30T11:46:18;100428.28;;;21.85;67.05
5812;BME280;2932;52.400;9.558;2023-07-30T11:48:46;100417.09;;;22.28;66.26
5812;BME280;2932;52.400;9.558;2023-07-30T11:51:28;100409.88;;;22.87;64.82
5812;BME280;2932;52.400;9.558;2023-07-30T11:58:46;100385.34;;;23.72;61.27
5812;BME280;2932;52.400;9.558;2023-07-30T12:01:11;100392.25;;;23.55;62.20
5812;BME280;2932;52.400;9.558;2023-07-30T12:03:37;100403.84;;;24.06;61.74
5812;BME280;2932;52.400;9.558;2023-07-30T12:06:06;100417.25;;;23.37;61.46
5812;BME280;2932;52.400;9.558;2023-07-30T12:08:33;100413.41;;;23.11;62.55
5812;BME280;2932;52.400;9.558;2023-07-30T12:11:02;100404.53;;;22.73;63.13
5812;BME280;2932;52.400;9.558;2023-07-30T12:13:28;100407.19;;;23.00;62.94
5812;BME280;2932;52.400;9.558;2023-07-30T12:15:54;100399.19;;;23.50;62.19
5812;BME280;2932;52.400;9.558;2023-07-30T12:18:21;100409.72;;;23.14;61.31
5812;BME280;2932;52.400;9.558;2023-07-30T12:20:47;100423.56;;;22.88;62.62
5812;BME280;2932;52.400;9.558;2023-07-30T12:23:13;100411.53;;;22.84;62.27
5812;BME280;2932;52.400;9.558;2023-07-30T12:25:38;100401.97;;;23.18;61.91
5812;BME280;2932;52.400;9.558;2023-07-30T12:30:33;100410.69;;;22.87;61.40
5812;BME280;2932;52.400;9.558;2023-07-30T12:32:58;100395.53;;;23.17;60.86
5812;BME280;2932;52.400;9.558;2023-07-30T12:35:24;100392.38;;;22.95;60.71
5812;BME280;2932;52.400;9.558;2023-07-30T12:37:49;100392.53;;;22.88;61.33
5812;BME280;2932;52.400;9.558;2023-07-30T12:40:16;100376.94;;;23.52;59.74
5812;BME280;2932;52.400;9.558;2023-07-30T12:42:41;100379.41;;;23.50;59.49
5812;BME280;2932;52.400;9.558;2023-07-30T12:45:07;100382.97;;;23.87;59.67
5812;BME280;2932;52.400;9.558;2023-07-30T12:47:35;100378.31;;;23.28;59.82
5812;BME280;2932;52.400;9.558;2023-07-30T12:50:02;100385.03;;;23.18;59.91
5812;BME280;2932;52.400;9.558;2023-07-30T12:52:28;100373.94;;;23.43;59.60
5812;BME280;2932;52.400;9.558;2023-07-30T12:54:53;100380.66;;;23.98;59.17
5812;BME280;2932;52.400;9.558;2023-07-30T12:57:18;100382.59;;;23.69;59.41
5812;BME280;2932;52.400;9.558;2023-07-30T12:59:44;100376.78;;;23.92;58.48
5812;BME280;2932;52.400;9.558;2023-07-30T13:02:09;100382.69;;;23.49;56.76
5812;BME280;2932;52.400;9.558;2023-07-30T13:04:34;100384.69;;;23.32;57.81
5812;BME280;2932;52.400;9.558;2023-07-30T13:07:00;100376.44;;;23.90;57.11
5812;BME280;2932;52.400;9.558;2023-07-30T13:09:25;100371.63;;;24.03;55.87
5812;BME280;2932;52.400;9.558;2023-07-30T13:11:50;100380.78;;;24.23;56.37
5812;BME280;2932;52.400;9.558;2023-07-30T13:14:16;100368.81;;;24.61;55.97
5812;BME280;2932;52.400;9.558;2023-07-30T13:16:41;100376.47;;;24.48;55.02
5812;BME280;2932;52.400;9.558;2023-07-30T13:19:06;100365.59;;;24.46;55.49